sensor_id;sensor_type;location;lat;lon;timestamp;pressure;altitude;pressure_sealevel;temperature;humidity
40788;BME280;26497;52.494;7.546;2022-10-03T00:01:41;101726.28;;;13.92;69.47
40788;BME280;26497;52.494;7.546;2022-10-03T00:04:25;101721.88;;;13.84;70.20
40788;BME280;26497;52.494;7.546;2022-10-03T00:10:48;101730.69;;;13.77;69.98
40788;BME280;26497;52.494;7.546;2022-10-03T00:13:26;101731.56;;;13.79;69.43
40788;BME280;26497;52.494;7.546;2022-10-03T00:16:08;101733.28;;;13.65;70.28
40788;BME280;26497;52.494;7.546;2022-10-03T00:18:50;101735.97;;;13.77;70.24
40788;BME280;26497;52.494;7.546;2022-10-03T00:21:42;101743.91;;;13.68;69.97
40788;BME280;26497;52.494;7.546;2022-10-03T00:24:26;101741.25;;;13.71;69.78
40788;BME280;26497;52.494;7.546;2022-10-03T00:27:02;101747.44;;;13.71;70.24
40788;BME280;26497;52.494;7.546;2022-10-03T00:29:45;101748.34;;;13.77;70.00
40788;BME280;26497;52.494;7.546;2022-10-03T00:32:28;101751.00;;;13.78;69.61
40788;BME280;26497;52.494;7.546;2022-10-03T00:35:21;101750.09;;;13.73;69.73
40788;BME280;26497;52.494;7.546;2022-10-03T00:38:07;101748.28;;;13.61;70.32
40788;BME280;26497;52.494;7.546;2022-10-03T00:41:29;101755.38;;;13.67;70.48
40788;BME280;26497;52.494;7.546;2022-10-03T00:47:39;101766.84;;;13.63;70.52
40788;BME280;26497;52.494;7.546;2022-10-03T00:50:48;101771.25;;;13.61;70.90
40788;BME280;26497;52.494;7.546;2022-10-03T00:53:40;101775.66;;;13.59;71.58
40788;BME280;26497;52.494;7.546;2022-10-03T00:56:41;101773.03;;;13.66;70.82
40788;BME280;26497;52.494;7.546;2022-10-03T00:59:27;101778.34;;;13.69;70.40
40788;BME280;26497;52.494;7.546;2022-10-03T01:02:23;101782.78;;;13.69;70.64
40788;BME280;26497;52.494;7.546;2022-10-03T01:05:01;101796.06;;;13.75;70.42
40788;BME280;26497;52.494;7.546;2022-10-03T01:07:57;101793.41;;;13.80;70.60
40788;BME280;26497;52.494;7.546;2022-10-03T01:10:38;101789.91;;;13.79;70.18
40788;BME280;26497;52.494;7.546;2022-10-03T01:13:28;101797.00;;;13.83;69.98
40788;BME280;26497;52.494;7.546;2022-10-03T01:16:08;101793.41;;;13.80;70.13
40788;BME280;26497;52.494;7.546;2022-10-03T01:18:49;101799.66;;;13.86;69.98
40788;BME280;26497;52.494;7.546;2022-10-03T01:21:35;101799.59;;;13.79;70.49
40788;BME280;26497;52.494;7.546;2022-10-03T01:24:30;101794.34;;;13.86;70.03
40788;BME280;26497;52.494;7.546;2022-10-03T01:27:03;101795.19;;;13.78;69.85
40788;BME280;26497;52.494;7.546;2022-10-03T01:29:48;101795.19;;;13.76;70.13
40788;BME280;26497;52.494;7.546;2022-10-03T01:32:43;101791.63;;;13.68;70.27
40788;BME280;26497;52.494;7.546;2022-10-03T01:35:28;101797.81;;;13.70;70.68
40788;BME280;26497;52.494;7.546;2022-10-03T01:38:11;101802.19;;;13.65;70.78
40788;BME280;26497;52.494;7.546;2022-10-03T01:40:52;101802.22;;;13.68;70.81
40788;BME280;26497;52.494;7.546;2022-10-03T01:43:33;101799.59;;;13.71;70.68
40788;BME280;26497;52.494;7.546;2022-10-03T01:46:11;101802.25;;;13.74;70.26
40788;BME280;26497;52.494;7.546;2022-10-03T01:48:50;101806.63;;;13.70;70.24
40788;BME280;26497;52.494;7.546;2022-10-03T01:51:27;101799.56;;;13.68;70.26
40788;BME280;26497;52.494;7.546;2022-10-03T01:54:06;101805.72;;;13.64;70.71
40788;BME280;26497;52.494;7.546;2022-10-03T01:56:46;101808.41;;;13.70;70.86
40788;BME280;26497;52.494;7.546;2022-10-03T01:59:27;101811.06;;;13.71;70.57
40788;BME280;26497;52.494;7.546;2022-10-03T02:02:05;101804.81;;;13.59;71.78
40788;BME280;26497;52.494;7.546;2022-10-03T02:04:41;101809.25;;;13.67;71.17
40788;BME280;26497;52.494;7.546;2022-10-03T02:07:17;101809.28;;;13.70;70.82
40788;BME280;26497;52.494;7.546;2022-10-03T02:10:01;101817.22;;;13.70;70.76
40788;BME280;26497;52.494;7.546;2022-10-03T02:12:32;101822.53;;;13.70;70.66
40788;BME280;26497;52.494;7.546;2022-10-03T02:15:10;101817.25;;;13.77;70.52
40788;BME280;26497;52.494;7.546;2022-10-03T02:17:51;101816.38;;;13.75;70.79
40788;BME280;26497;52.494;7.546;2022-10-03T02:20:31;101815.47;;;13.68;70.94
40788;BME280;26497;52.494;7.546;2022-10-03T02:23:00;101819.88;;;13.66;70.90
40788;BME280;26497;52.494;7.546;2022-10-03T02:25:50;101823.44;;;13.74;70.69
40788;BME280;26497;52.494;7.546;2022-10-03T02:28:46;101825.19;;;13.70;70.82
40788;BME280;26497;52.494;7.546;2022-10-03T02:35:24;101827.78;;;13.61;71.65
40788;BME280;26497;52.494;7.546;2022-10-03T02:38:26;101824.31;;;13.67;71.19
40788;BME280;26497;52.494;7.546;2022-10-03T02:41:17;101822.50;;;13.60;71.23
40788;BME280;26497;52.494;7.546;2022-10-03T02:44:20;101826.06;;;13.65;70.82
40788;BME280;26497;52.494;7.546;2022-10-03T02:47:34;101826.06;;;13.66;70.74
40788;BME280;26497;52.494;7.546;2022-10-03T02:50:42;101832.19;;;13.57;70.95
40788;BME280;26497;52.494;7.546;2022-10-03T02:57:12;101833.94;;;13.54;71.48
40788;BME280;26497;52.494;7.546;2022-10-03T03:00:07;101831.28;;;13.52;72.05
40788;BME280;26497;52.494;7.546;2022-10-03T03:02:58;101833.06;;;13.56;71.75
40788;BME280;26497;52.494;7.546;2022-10-03T03:08:40;101837.53;;;13.64;70.52
40788;BME280;26497;52.494;7.546;2022-10-03T03:11:56;101841.09;;;13.66;70.40
40788;BME280;26497;52.494;7.546;2022-10-03T03:15:11;101845.50;;;13.64;70.45
40788;BME280;26497;52.494;7.546;2022-10-03T03:18:03;101847.19;;;13.57;70.82
40788;BME280;26497;52.494;7.546;2022-10-03T03:20:47;101841.00;;;13.53;70.95
40788;BME280;26497;52.494;7.546;2022-10-03T03:23:40;101838.34;;;13.53;71.12
40788;BME280;26497;52.494;7.546;2022-10-03T03:26:41;101833.97;;;13.55;71.48
40788;BME280;26497;52.494;7.546;2022-10-03T03:29:20;101840.19;;;13.64;70.88
40788;BME280;26497;52.494;7.546;2022-10-03T03:31:56;101845.47;;;13.61;70.70
40788;BME280;26497;52.494;7.546;2022-10-03T03:34:33;101838.44;;;13.66;70.25
40788;BME280;26497;52.494;7.546;2022-10-03T03:37:10;101846.41;;;13.69;70.32
40788;BME280;26497;52.494;7.546;2022-10-03T03:40:01;101845.53;;;13.71;70.45
40788;BME280;26497;52.494;7.546;2022-10-03T03:43:09;101844.66;;;13.76;70.80
40788;BME280;26497;52.494;7.546;2022-10-03T03:46:16;101847.31;;;13.76;70.93
40788;BME280;26497;52.494;7.546;2022-10-03T03:48:59;101846.44;;;13.78;70.76
40788;BME280;26497;52.494;7.546;2022-10-03T03:51:41;101852.59;;;13.76;70.60
40788;BME280;26497;52.494;7.546;2022-10-03T03:54:33;101856.16;;;13.73;70.79
40788;BME280;26497;52.494;7.546;2022-10-03T03:57:45;101854.34;;;13.66;70.96
40788;BME280;26497;52.494;7.546;2022-10-03T04:00:18;101856.97;;;13.67;70.78
40788;BME280;26497;52.494;7.546;2022-10-03T04:03:15;101862.25;;;13.64;69.85
40788;BME280;26497;52.494;7.546;2022-10-03T04:06:01;101852.50;;;13.52;70.70
40788;BME280;26497;52.494;7.546;2022-10-03T04:08:51;101862.19;;;13.52;70.54
40788;BME280;26497;52.494;7.546;2022-10-03T04:11:40;101856.00;;;13.50;70.66
40788;BME280;26497;52.494;7.546;2022-10-03T04:14:28;101854.16;;;13.42;70.51
40788;BME280;26497;52.494;7.546;2022-10-03T04:17:14;101854.19;;;13.46;70.26
40788;BME280;26497;52.494;7.546;2022-10-03T04:20:12;101856.84;;;13.44;69.55
40788;BME280;26497;52.494;7.546;2022-10-03T04:23:01;101855.03;;;13.40;69.33
40788;BME280;26497;52.494;7.546;2022-10-03T04:25:53;101865.56;;;13.31;69.41
40788;BME280;26497;52.494;7.546;2022-10-03T04:28:46;101862.00;;;13.28;68.73
40788;BME280;26497;52.494;7.546;2022-10-03T04:31:34;101871.66;;;13.19;68.33
40788;BME280;26497;52.494;7.546;2022-10-03T04:34:21;101875.91;;;13.03;68.10
40788;BME280;26497;52.494;7.546;2022-10-03T04:37:04;101870.47;;;12.86;68.08
40788;BME280;26497;52.494;7.546;2022-10-03T04:39:40;101873.88;;;12.74;68.06
40788;BME280;26497;52.494;7.546;2022-10-03T04:42:19;101875.59;;;12.67;68.32
40788;BME280;26497;52.494;7.546;2022-10-03T04:45:02;101876.53;;;12.72;68.24
40788;BME280;26497;52.494;7.546;2022-10-03T04:47:38;101878.16;;;12.62;68.50
40788;BME280;26497;52.494;7.546;2022-10-03T04:50:32;101886.97;;;12.60;68.75
40788;BME280;26497;52.494;7.546;2022-10-03T04:53:21;101884.22;;;12.49;69.51
40788;BME280;26497;52.494;7.546;2022-10-03T04:55:55;101893.06;;;12.51;69.50
40788;BME280;26497;52.494;7.546;2022-10-03T04:58:35;101881.69;;;12.61;69.61
40788;BME280;26497;52.494;7.546;2022-10-03T05:01:13;101890.53;;;12.63;69.42
40788;BME280;26497;52.494;7.546;2022-10-03T05:03:56;101884.34;;;12.61;69.37
40788;BME280;26497;52.494;7.546;2022-10-03T05:06:36;101891.44;;;12.65;69.90
40788;BME280;26497;52.494;7.546;2022-10-03T05:09:21;101892.41;;;12.72;69.77
40788;BME280;26497;52.494;7.546;2022-10-03T05:12:00;101890.66;;;12.76;70.12
40788;BME280;26497;52.494;7.546;2022-10-03T05:14:48;101896.03;;;12.80;70.05
40788;BME280;26497;52.494;7.546;2022-10-03T05:17:25;101903.09;;;12.81;69.93
40788;BME280;26497;52.494;7.546;2022-10-03T05:20:21;101905.75;;;12.83;69.72
40788;BME280;26497;52.494;7.546;2022-10-03T05:23:01;101900.44;;;12.81;69.21
40788;BME280;26497;52.494;7.546;2022-10-03T05:25:44;101901.28;;;12.77;69.81
40788;BME280;26497;52.494;7.546;2022-10-03T05:28:20;101901.28;;;12.79;69.63
40788;BME280;26497;52.494;7.546;2022-10-03T05:31:00;101906.50;;;12.73;69.66
40788;BME280;26497;52.494;7.546;2022-10-03T05:33:39;101907.38;;;12.72;69.53
40788;BME280;26497;52.494;7.546;2022-10-03T05:36:17;101903.81;;;12.68;69.93
40788;BME280;26497;52.494;7.546;2022-10-03T05:39:34;101912.63;;;12.68;70.00
40788;BME280;26497;52.494;7.546;2022-10-03T05:42:34;101911.81;;;12.71;69.88
40788;BME280;26497;52.494;7.546;2022-10-03T05:45:07;101911.81;;;12.71;70.03
40788;BME280;26497;52.494;7.546;2022-10-03T05:47:49;101903.91;;;12.76;69.59
40788;BME280;26497;52.494;7.546;2022-10-03T05:51:00;101915.41;;;12.81;69.92
40788;BME280;26497;52.494;7.546;2022-10-03T05:57:30;101917.22;;;12.85;70.75
40788;BME280;26497;52.494;7.546;2022-10-03T06:00:13;101914.72;;;13.01;70.97
40788;BME280;26497;52.494;7.546;2022-10-03T06:03:32;101912.19;;;13.13;71.11
40788;BME280;26497;52.494;7.546;2022-10-03T06:06:18;101917.63;;;13.24;71.86
40788;BME280;26497;52.494;7.546;2022-10-03T06:08:57;101926.53;;;13.37;72.54
40788;BME280;26497;52.494;7.546;2022-10-03T06:12:02;101919.75;;;13.70;72.84
40788;BME280;26497;52.494;7.546;2022-10-03T06:14:49;101929.56;;;13.83;72.35
40788;BME280;26497;52.494;7.546;2022-10-03T06:17:38;101933.16;;;14.01;71.85
40788;BME280;26497;52.494;7.546;2022-10-03T06:24:13;101936.81;;;14.19;72.71
40788;BME280;26497;52.494;7.546;2022-10-03T06:27:26;101936.00;;;14.37;73.04
40788;BME280;26497;52.494;7.546;2022-10-03T06:30:10;101938.66;;;14.37;73.56
40788;BME280;26497;52.494;7.546;2022-10-03T06:36:23;101943.97;;;14.41;73.46
40788;BME280;26497;52.494;7.546;2022-10-03T06:39:35;101946.69;;;14.49;73.13
40788;BME280;26497;52.494;7.546;2022-10-03T06:46:23;101960.09;;;14.88;73.83
40788;BME280;26497;52.494;7.546;2022-10-03T06:49:41;101954.81;;;15.11;72.80
40788;BME280;26497;52.494;7.546;2022-10-03T06:59:28;101969.91;;;15.31;74.09
40788;BME280;26497;52.494;7.546;2022-10-03T07:06:07;101981.41;;;15.25;73.76
40788;BME280;26497;52.494;7.546;2022-10-03T07:13:02;101977.88;;;15.74;74.91
40788;BME280;26497;52.494;7.546;2022-10-03T07:16:16;101976.06;;;16.15;75.00
40788;BME280;26497;52.494;7.546;2022-10-03T07:19:30;101983.91;;;16.51;75.75
40788;BME280;26497;52.494;7.546;2022-10-03T07:29:17;101977.31;;;17.22;75.11
40788;BME280;26497;52.494;7.546;2022-10-03T07:32:25;101987.75;;;17.53;74.81
40788;BME280;26497;52.494;7.546;2022-10-03T07:35:37;101991.28;;;17.53;74.77
40788;BME280;26497;52.494;7.546;2022-10-03T07:42:03;101998.03;;;17.93;74.96
40788;BME280;26497;52.494;7.546;2022-10-03T07:45:12;101997.81;;;18.18;74.32
40788;BME280;26497;52.494;7.546;2022-10-03T07:48:39;101993.19;;;18.33;73.47
40788;BME280;26497;52.494;7.546;2022-10-03T07:51:20;102001.06;;;18.47;72.88
40788;BME280;26497;52.494;7.546;2022-10-03T07:54:35;102004.59;;;18.47;73.08
40788;BME280;26497;52.494;7.546;2022-10-03T07:57:45;102003.34;;;18.00;72.33
40788;BME280;26497;52.494;7.546;2022-10-03T08:00:20;101999.47;;;18.30;73.63
40788;BME280;26497;52.494;7.546;2022-10-03T08:06:17;102008.97;;;18.54;73.47
40788;BME280;26497;52.494;7.546;2022-10-03T08:09:06;102013.78;;;18.98;74.41
40788;BME280;26497;52.494;7.546;2022-10-03T08:12:27;102014.38;;;19.19;72.82
40788;BME280;26497;52.494;7.546;2022-10-03T08:15:08;102016.25;;;19.13;72.54
40788;BME280;26497;52.494;7.546;2022-10-03T08:18:19;102013.56;;;19.68;74.40
40788;BME280;26497;52.494;7.546;2022-10-03T08:20:54;102013.81;;;20.52;76.50
40788;BME280;26497;52.494;7.546;2022-10-03T08:24:08;102017.81;;;21.89;78.00
40788;BME280;26497;52.494;7.546;2022-10-03T08:27:03;102016.47;;;23.01;73.65
40788;BME280;26497;52.494;7.546;2022-10-03T08:30:05;102014.44;;;24.17;67.82
40788;BME280;26497;52.494;7.546;2022-10-03T08:33:35;102010.28;;;25.25;64.14
40788;BME280;26497;52.494;7.546;2022-10-03T08:36:28;102011.91;;;26.15;61.84
40788;BME280;26497;52.494;7.546;2022-10-03T08:39:12;102014.56;;;26.95;58.96
40788;BME280;26497;52.494;7.546;2022-10-03T08:42:25;102014.53;;;28.04;57.57
40788;BME280;26497;52.494;7.546;2022-10-03T08:48:47;102017.69;;;29.74;52.61
40788;BME280;26497;52.494;7.546;2022-10-03T08:51:57;102014.56;;;30.11;50.08
40788;BME280;26497;52.494;7.546;2022-10-03T08:58:04;102017.34;;;30.96;40.52
40788;BME280;26497;52.494;7.546;2022-10-03T09:01:01;102014.63;;;30.96;44.36
40788;BME280;26497;52.494;7.546;2022-10-03T09:07:19;102016.78;;;31.73;39.18
40788;BME280;26497;52.494;7.546;2022-10-03T09:13:55;102008.94;;;31.95;32.96
40788;BME280;26497;52.494;7.546;2022-10-03T09:20:08;102011.56;;;33.22;29.81
40788;BME280;26497;52.494;7.546;2022-10-03T09:23:32;102017.25;;;32.82;27.88
40788;BME280;26497;52.494;7.546;2022-10-03T09:26:50;102017.66;;;33.02;28.00
40788;BME280;26497;52.494;7.546;2022-10-03T09:30:20;102015.59;;;33.17;27.60
40788;BME280;26497;52.494;7.546;2022-10-03T09:33:44;102003.56;;;32.58;27.85
40788;BME280;26497;52.494;7.546;2022-10-03T09:37:26;102008.00;;;32.85;27.31
40788;BME280;26497;52.494;7.546;2022-10-03T09:40:22;102005.81;;;33.14;26.44
40788;BME280;26497;52.494;7.546;2022-10-03T09:43:36;102007.66;;;33.38;26.21
40788;BME280;26497;52.494;7.546;2022-10-03T09:46:47;102008.56;;;33.50;26.47
40788;BME280;26497;52.494;7.546;2022-10-03T09:50:24;102006.78;;;33.62;25.70
40788;BME280;26497;52.494;7.546;2022-10-03T09:53:35;102002.66;;;34.15;27.14
40788;BME280;26497;52.494;7.546;2022-10-03T09:59:51;102005.59;;;35.03;24.55
40788;BME280;26497;52.494;7.546;2022-10-03T10:06:29;101994.31;;;35.17;23.44
40788;BME280;26497;52.494;7.546;2022-10-03T10:09:30;102000.19;;;34.57;24.12
40788;BME280;26497;52.494;7.546;2022-10-03T10:16:22;101997.22;;;33.79;24.71
40788;BME280;26497;52.494;7.546;2022-10-03T10:19:30;101995.16;;;33.94;25.18
40788;BME280;26497;52.494;7.546;2022-10-03T10:22:27;101988.41;;;33.87;24.73
40788;BME280;26497;52.494;7.546;2022-10-03T10:25:35;101992.09;;;33.38;23.97
40788;BME280;26497;52.494;7.546;2022-10-03T10:32:28;101991.00;;;32.55;24.90
40788;BME280;26497;52.494;7.546;2022-10-03T10:38:33;101986.00;;;32.49;26.13
40788;BME280;26497;52.494;7.546;2022-10-03T10:41:50;101979.34;;;33.15;24.43
40788;BME280;26497;52.494;7.546;2022-10-03T10:55:43;101979.63;;;31.58;27.29
40788;BME280;26497;52.494;7.546;2022-10-03T10:59:25;101969.50;;;30.36;29.58
40788;BME280;26497;52.494;7.546;2022-10-03T11:09:44;101980.19;;;29.34;30.68
40788;BME280;26497;52.494;7.546;2022-10-03T11:16:27;101973.31;;;30.89;27.99
40788;BME280;26497;52.494;7.546;2022-10-03T11:23:31;101970.16;;;32.91;26.27
40788;BME280;26497;52.494;7.546;2022-10-03T11:26:54;101971.44;;;33.47;24.63
40788;BME280;26497;52.494;7.546;2022-10-03T11:30:21;101967.91;;;32.09;24.41
40788;BME280;26497;52.494;7.546;2022-10-03T11:33:54;101967.47;;;32.28;25.73
40788;BME280;26497;52.494;7.546;2022-10-03T11:37:02;101978.00;;;33.45;25.35
40788;BME280;26497;52.494;7.546;2022-10-03T11:39:42;101964.72;;;34.21;23.22
40788;BME280;26497;52.494;7.546;2022-10-03T11:42:21;101966.63;;;34.88;23.28
40788;BME280;26497;52.494;7.546;2022-10-03T11:44:56;101971.56;;;34.94;23.02
40788;BME280;26497;52.494;7.546;2022-10-03T11:47:48;101969.63;;;33.82;22.25
40788;BME280;26497;52.494;7.546;2022-10-03T11:50:37;101971.75;;;33.90;23.31
40788;BME280;26497;52.494;7.546;2022-10-03T11:53:36;101974.78;;;34.09;23.90
40788;BME280;26497;52.494;7.546;2022-10-03T11:56:35;101975.19;;;34.94;23.27
40788;BME280;26497;52.494;7.546;2022-10-03T11:59:24;101978.69;;;35.08;22.32
40788;BME280;26497;52.494;7.546;2022-10-03T12:02:07;101971.66;;;34.48;23.18
40788;BME280;26497;52.494;7.546;2022-10-03T12:04:49;101975.50;;;33.42;24.29
40788;BME280;26497;52.494;7.546;2022-10-03T12:07:39;101974.34;;;32.34;26.28
40788;BME280;26497;52.494;7.546;2022-10-03T12:10:36;101978.75;;;31.44;26.62
40788;BME280;26497;52.494;7.546;2022-10-03T12:13:10;101977.84;;;31.31;27.73
40788;BME280;26497;52.494;7.546;2022-10-03T12:15:44;101971.09;;;31.37;25.57
40788;BME280;26497;52.494;7.546;2022-10-03T12:18:15;101969.66;;;31.31;25.56
40788;BME280;26497;52.494;7.546;2022-10-03T12:21:08;101959.84;;;30.59;26.63
40788;BME280;26497;52.494;7.546;2022-10-03T12:23:58;101964.47;;;29.70;28.95
40788;BME280;26497;52.494;7.546;2022-10-03T12:26:37;101958.63;;;29.62;29.71
40788;BME280;26497;52.494;7.546;2022-10-03T12:29:11;101953.13;;;29.92;29.75
40788;BME280;26497;52.494;7.546;2022-10-03T12:31:43;101958.97;;;29.86;29.46
40788;BME280;26497;52.494;7.546;2022-10-03T12:34:34;101970.94;;;29.37;29.85
40788;BME280;26497;52.494;7.546;2022-10-03T12:37:43;101963.41;;;29.58;29.99
40788;BME280;26497;52.494;7.546;2022-10-03T12:40:21;101962.88;;;30.69;28.52
40788;BME280;26497;52.494;7.546;2022-10-03T12:43:02;101959.06;;;32.18;26.83
40788;BME280;26497;52.494;7.546;2022-10-03T12:45:35;101955.19;;;32.84;24.91
40788;BME280;26497;52.494;7.546;2022-10-03T12:48:26;101961.91;;;32.43;24.66
40788;BME280;26497;52.494;7.546;2022-10-03T12:51:04;101954.97;;;32.50;26.08
40788;BME280;26497;52.494;7.546;2022-10-03T12:53:45;101957.00;;;32.35;25.05
40788;BME280;26497;52.494;7.546;2022-10-03T12:56:24;101950.41;;;30.79;26.21
40788;BME280;26497;52.494;7.546;2022-10-03T12:59:10;101948.78;;;30.62;27.68
40788;BME280;26497;52.494;7.546;2022-10-03T13:02:15;101954.84;;;30.09;28.38
40788;BME280;26497;52.494;7.546;2022-10-03T13:05:22;101956.66;;;29.80;28.95
40788;BME280;26497;52.494;7.546;2022-10-03T13:07:52;101956.88;;;28.99;28.96
40788;BME280;26497;52.494;7.546;2022-10-03T13:10:25;101959.66;;;28.98;29.89
40788;BME280;26497;52.494;7.546;2022-10-03T13:13:14;101964.78;;;28.22;30.46
40788;BME280;26497;52.494;7.546;2022-10-03T13:16:16;101958.44;;;27.53;32.28
40788;BME280;26497;52.494;7.546;2022-10-03T13:18:57;101957.75;;;27.49;33.79
40788;BME280;26497;52.494;7.546;2022-10-03T13:21:43;101968.44;;;27.33;33.78
40788;BME280;26497;52.494;7.546;2022-10-03T13:24:27;101970.25;;;27.15;34.86
40788;BME280;26497;52.494;7.546;2022-10-03T13:27:16;101960.50;;;26.74;34.23
40788;BME280;26497;52.494;7.546;2022-10-03T13:29:53;101966.69;;;26.57;34.45
40788;BME280;26497;52.494;7.546;2022-10-03T13:32:30;101964.59;;;26.64;35.51
40788;BME280;26497;52.494;7.546;2022-10-03T13:35:22;101962.69;;;27.22;33.89
40788;BME280;26497;52.494;7.546;2022-10-03T13:38:42;101964.94;;;28.19;32.47
40788;BME280;26497;52.494;7.546;2022-10-03T13:41:28;101949.31;;;29.05;30.45
40788;BME280;26497;52.494;7.546;2022-10-03T13:43:59;101944.56;;;29.55;30.61
40788;BME280;26497;52.494;7.546;2022-10-03T13:46:39;101941.25;;;30.24;28.98
40788;BME280;26497;52.494;7.546;2022-10-03T13:49:15;101944.03;;;31.21;28.59
40788;BME280;26497;52.494;7.546;2022-10-03T13:51:50;101935.19;;;31.83;28.07
40788;BME280;26497;52.494;7.546;2022-10-03T13:55:00;101941.38;;;32.11;26.68
40788;BME280;26497;52.494;7.546;2022-10-03T13:57:36;101935.16;;;32.09;27.59
40788;BME280;26497;52.494;7.546;2022-10-03T14:00:08;101942.28;;;31.86;26.89
40788;BME280;26497;52.494;7.546;2022-10-03T14:02:56;101938.19;;;31.40;27.84
40788;BME280;26497;52.494;7.546;2022-10-03T14:06:13;101928.94;;;31.15;28.45
40788;BME280;26497;52.494;7.546;2022-10-03T14:09:14;101931.59;;;30.62;27.63
40788;BME280;26497;52.494;7.546;2022-10-03T14:11:52;101927.06;;;30.19;29.84
40788;BME280;26497;52.494;7.546;2022-10-03T14:14:52;101933.06;;;29.95;29.76
40788;BME280;26497;52.494;7.546;2022-10-03T14:17:24;101934.63;;;30.28;29.60
40788;BME280;26497;52.494;7.546;2022-10-03T14:20:13;101933.31;;;29.90;29.52
40788;BME280;26497;52.494;7.546;2022-10-03T14:22:56;101930.56;;;29.47;31.08
40788;BME280;26497;52.494;7.546;2022-10-03T14:25:30;101930.69;;;28.82;31.26
40788;BME280;26497;52.494;7.546;2022-10-03T14:28:05;101926.19;;;28.49;32.19
40788;BME280;26497;52.494;7.546;2022-10-03T14:30:48;101930.19;;;28.26;33.24
40788;BME280;26497;52.494;7.546;2022-10-03T14:33:26;101926.59;;;27.92;32.92
40788;BME280;26497;52.494;7.546;2022-10-03T14:36:17;101926.25;;;27.64;33.30
40788;BME280;26497;52.494;7.546;2022-10-03T14:39:07;101923.63;;;27.63;34.25
40788;BME280;26497;52.494;7.546;2022-10-03T14:41:45;101925.47;;;27.62;34.51
40788;BME280;26497;52.494;7.546;2022-10-03T14:44:18;101927.13;;;27.47;33.98
40788;BME280;26497;52.494;7.546;2022-10-03T14:46:52;101924.34;;;27.49;34.42
40788;BME280;26497;52.494;7.546;2022-10-03T14:49:25;101924.16;;;27.34;35.29
40788;BME280;26497;52.494;7.546;2022-10-03T14:51:59;101923.59;;;27.10;35.40
40788;BME280;26497;52.494;7.546;2022-10-03T14:54:29;101916.91;;;26.81;36.03
40788;BME280;26497;52.494;7.546;2022-10-03T14:57:17;101908.00;;;26.59;36.24
40788;BME280;26497;52.494;7.546;2022-10-03T14:59:53;101916.13;;;26.40;36.54
40788;BME280;26497;52.494;7.546;2022-10-03T15:02:28;101912.50;;;26.22;37.12
40788;BME280;26497;52.494;7.546;2022-10-03T15:05:06;101907.91;;;26.03;37.36
40788;BME280;26497;52.494;7.546;2022-10-03T15:07:38;101905.94;;;25.86;37.17
40788;BME280;26497;52.494;7.546;2022-10-03T15:10:10;101902.00;;;25.54;36.92
40788;BME280;26497;52.494;7.546;2022-10-03T15:12:42;101895.16;;;25.24;37.54
40788;BME280;26497;52.494;7.546;2022-10-03T15:15:17;101899.56;;;25.05;38.26
40788;BME280;26497;52.494;7.546;2022-10-03T15:17:48;101895.59;;;24.93;38.68
40788;BME280;26497;52.494;7.546;2022-10-03T15:20:21;101886.84;;;24.64;38.45
40788;BME280;26497;52.494;7.546;2022-10-03T15:22:56;101886.38;;;24.06;38.76
40788;BME280;26497;52.494;7.546;2022-10-03T15:25:27;101891.19;;;23.96;39.22
40788;BME280;26497;52.494;7.546;2022-10-03T15:28:03;101881.56;;;24.14;39.41
40788;BME280;26497;52.494;7.546;2022-10-03T15:30:34;101881.22;;;24.24;40.28
40788;BME280;26497;52.494;7.546;2022-10-03T15:33:10;101887.31;;;24.29;41.03
40788;BME280;26497;52.494;7.546;2022-10-03T15:35:42;101882.84;;;24.28;41.88
40788;BME280;26497;52.494;7.546;2022-10-03T15:38:15;101878.75;;;24.18;42.24
40788;BME280;26497;52.494;7.546;2022-10-03T15:40:51;101873.28;;;24.19;42.68
40788;BME280;26497;52.494;7.546;2022-10-03T15:43:32;101879.94;;;24.10;42.99
40788;BME280;26497;52.494;7.546;2022-10-03T15:46:05;101875.75;;;24.02;43.48
40788;BME280;26497;52.494;7.546;2022-10-03T15:48:38;101871.72;;;23.88;43.75
40788;BME280;26497;52.494;7.546;2022-10-03T15:51:16;101870.38;;;23.76;44.08
40788;BME280;26497;52.494;7.546;2022-10-03T15:53:49;101869.84;;;23.66;44.52
40788;BME280;26497;52.494;7.546;2022-10-03T15:56:22;101874.88;;;23.52;45.05
40788;BME280;26497;52.494;7.546;2022-10-03T15:58:54;101873.06;;;23.25;44.74
40788;BME280;26497;52.494;7.546;2022-10-03T16:01:26;101872.13;;;23.00;44.04
40788;BME280;26497;52.494;7.546;2022-10-03T16:03:56;101869.06;;;22.83;44.67
40788;BME280;26497;52.494;7.546;2022-10-03T16:06:32;101876.25;;;22.54;44.52
40788;BME280;26497;52.494;7.546;2022-10-03T16:09:15;101871.34;;;22.39;45.07
40788;BME280;26497;52.494;7.546;2022-10-03T16:11:52;101874.63;;;22.19;45.57
40788;BME280;26497;52.494;7.546;2022-10-03T16:14:23;101879.50;;;22.06;45.43
40788;BME280;26497;52.494;7.546;2022-10-03T16:16:55;101880.13;;;21.84;46.17
40788;BME280;26497;52.494;7.546;2022-10-03T16:19:32;101875.06;;;21.73;46.97
40788;BME280;26497;52.494;7.546;2022-10-03T16:22:12;101877.03;;;21.67;47.36
40788;BME280;26497;52.494;7.546;2022-10-03T16:24:57;101871.28;;;21.46;48.06
40788;BME280;26497;52.494;7.546;2022-10-03T16:27:30;101876.38;;;21.22;48.57
40788;BME280;26497;52.494;7.546;2022-10-03T16:30:15;101873.22;;;21.06;49.06
40788;BME280;26497;52.494;7.546;2022-10-03T16:32:52;101869.78;;;21.01;49.53
40788;BME280;26497;52.494;7.546;2022-10-03T16:35:35;101872.69;;;20.91;49.85
40788;BME280;26497;52.494;7.546;2022-10-03T16:38:07;101880.94;;;20.82;50.43
40788;BME280;26497;52.494;7.546;2022-10-03T16:40:51;101882.06;;;20.72;50.48
40788;BME280;26497;52.494;7.546;2022-10-03T16:43:19;101874.31;;;20.59;50.94
40788;BME280;26497;52.494;7.546;2022-10-03T16:45:47;101871.16;;;20.42;51.39